createdAt,value
2019-04-03T00:01:04.135Z,4.97
2019-04-03T00:03:34.241Z,6.25
2019-04-03T00:06:06.056Z,5.15
2019-04-03T00:08:37.075Z,5.15
2019-04-03T00:11:09.491Z,5.83
2019-04-03T00:13:42.228Z,5.17
2019-04-03T00:16:12.092Z,4.83
2019-04-03T00:18:42.743Z,5.10
2019-04-03T00:21:13.390Z,5.05
2019-04-03T00:26:13.878Z,5.10
2019-04-03T00:31:14.240Z,5.10
2019-04-03T00:33:44.911Z,5.37
2019-04-03T00:36:15.689Z,4.85
2019-04-03T00:38:46.314Z,5.30
2019-04-03T00:43:46.679Z,4.65
2019-04-03T00:46:17.232Z,5.25
2019-04-03T00:48:47.799Z,4.70
2019-04-03T00:53:48.519Z,5.35
2019-04-03T00:58:48.898Z,5.13
2019-04-03T01:01:19.624Z,4.47
2019-04-03T01:03:50.278Z,4.92
2019-04-03T01:06:21.009Z,4.58
2019-04-03T01:08:51.781Z,5.37
2019-04-03T01:11:22.025Z,4.55
2019-04-03T01:13:52.760Z,5.05
2019-04-03T01:16:23.536Z,4.72
2019-04-03T01:18:54.179Z,4.22
2019-04-03T01:23:54.750Z,4.33
2019-04-03T01:26:25.509Z,4.65
2019-04-03T01:31:27.234Z,4.53
2019-04-03T01:33:57.767Z,4.10
2019-04-03T01:36:28.543Z,4.83
2019-04-03T01:38:59.394Z,4.25
2019-04-03T01:41:29.930Z,4.97
2019-04-03T01:46:30.514Z,5.08
2019-04-03T01:51:31.002Z,4.45
2019-04-03T01:56:33.846Z,4.65
2019-04-03T01:59:06.654Z,4.75
2019-04-03T02:01:38.715Z,5.47
2019-04-03T02:04:12.110Z,5.37
2019-04-03T02:06:43.125Z,5.55
2019-04-03T02:09:15.596Z,5.78
2019-04-03T02:11:47.604Z,5.20
2019-04-03T02:14:21.278Z,5.12
2019-04-03T02:16:53.203Z,5.05
2019-04-03T02:19:25.738Z,5.50
2019-04-03T02:21:54.585Z,4.90
2019-04-03T02:26:55.172Z,5.25
2019-04-03T02:29:26.884Z,5.83
2019-04-03T02:31:57.704Z,5.53
2019-04-03T02:34:28.356Z,5.08
2019-04-03T02:36:59.418Z,6.00
2019-04-03T02:39:30.173Z,6.42
2019-04-03T02:42:00.819Z,6.47
2019-04-03T02:44:31.474Z,6.55
2019-04-03T02:47:02.208Z,7.35
2019-04-03T02:49:32.968Z,7.20
2019-04-03T02:52:03.734Z,7.97
2019-04-03T02:54:35.499Z,7.83
2019-04-03T02:57:07.017Z,9.55
2019-04-03T02:59:38.044Z,8.15
2019-04-03T03:04:39.867Z,9.68
2019-04-03T03:07:10.610Z,10.82
2019-04-03T03:09:45.675Z,10.18
2019-04-03T03:12:13.538Z,12.23
2019-04-03T03:14:44.204Z,13.28
2019-04-03T03:17:15.058Z,12.60
2019-04-03T03:19:46.099Z,12.93
2019-04-03T03:22:18.082Z,12.05
2019-04-03T03:24:49.876Z,11.33
2019-04-03T03:27:20.713Z,12.00
2019-04-03T03:29:52.506Z,11.88
2019-04-03T03:32:31.366Z,11.18
2019-04-03T03:35:07.611Z,9.73
2019-04-03T03:37:27.856Z,11.25
2019-04-03T03:39:58.591Z,11.83
2019-04-03T03:45:01.580Z,12.18
2019-04-03T03:47:35.101Z,13.20
2019-04-03T03:50:07.400Z,13.30
2019-04-03T03:52:38.648Z,12.90
2019-04-03T03:55:09.454Z,12.68
2019-04-03T03:57:40.568Z,13.28
2019-04-03T04:00:11.371Z,10.93
2019-04-03T04:02:44.566Z,11.20
2019-04-03T04:05:14.341Z,10.65
2019-04-03T04:07:45.366Z,10.38
2019-04-03T04:10:16.415Z,9.30
2019-04-03T04:12:47.587Z,7.87
2019-04-03T04:15:18.453Z,7.87
2019-04-03T04:17:51.318Z,7.80
2019-04-03T04:20:22.132Z,6.87
2019-04-03T04:22:53.112Z,7.10
2019-04-03T04:25:23.904Z,7.30
2019-04-03T04:27:54.674Z,6.55
2019-04-03T04:30:26.231Z,10.15
2019-04-03T04:32:57.100Z,8.05
2019-04-03T04:35:27.959Z,7.83
2019-04-03T04:37:58.793Z,8.95
2019-04-03T04:40:31.312Z,9.45
2019-04-03T04:43:03.764Z,9.93
2019-04-03T04:45:33.961Z,10.58
2019-04-03T04:48:04.705Z,10.35
2019-04-03T04:50:35.457Z,10.30
2019-04-03T04:53:06.098Z,10.20
2019-04-03T04:58:06.869Z,9.88
2019-04-03T05:03:07.825Z,9.40
2019-04-03T05:05:38.520Z,9.88
2019-04-03T05:08:09.270Z,8.40
2019-04-03T05:10:40.042Z,6.37
2019-04-03T05:13:10.797Z,6.20
2019-04-03T05:15:41.717Z,5.90
2019-04-03T05:18:12.609Z,5.92
2019-04-03T05:20:43.345Z,5.25
2019-04-03T05:25:44.037Z,4.67
2019-04-03T05:28:14.501Z,5.25
2019-04-03T05:30:46.381Z,4.58
2019-04-03T05:33:17.183Z,5.53
2019-04-03T05:35:47.888Z,4.83
2019-04-03T05:40:48.382Z,4.77
2019-04-03T05:45:48.804Z,3.40
2019-04-03T05:48:19.411Z,4.20
2019-04-03T05:53:20.246Z,3.58
2019-04-03T05:55:50.837Z,3.83
2019-04-03T05:58:21.927Z,3.75
2019-04-03T06:01:03.639Z,3.85
2019-04-03T06:03:37.562Z,3.15
2019-04-03T06:05:58.059Z,3.30
2019-04-03T06:08:28.487Z,3.10
2019-04-03T06:13:28.787Z,2.75
2019-04-03T06:18:31.671Z,3.20
2019-04-03T06:21:01.659Z,2.42
2019-04-03T06:23:32.314Z,2.30
2019-04-03T06:31:04.983Z,2.10
2019-04-03T06:33:37.154Z,1.80
2019-04-03T06:36:07.604Z,2.30
2019-04-03T06:38:38.351Z,2.12
2019-04-03T06:41:09.252Z,1.70
2019-04-03T06:43:40.180Z,1.40
2019-04-03T06:48:40.983Z,1.32
2019-04-03T06:51:11.651Z,1.82
2019-04-03T06:53:42.443Z,2.35
2019-04-03T06:56:13.030Z,1.77
2019-04-03T07:01:14.948Z,1.90
2019-04-03T07:06:15.417Z,1.65
2019-04-03T07:08:47.600Z,1.52
2019-04-03T07:11:23.539Z,1.70
2019-04-03T07:13:49.942Z,2.10
2019-04-03T07:18:50.311Z,1.70
2019-04-03T07:21:22.818Z,1.55
2019-04-03T07:23:53.892Z,1.32
2019-04-03T07:28:54.770Z,1.77
2019-04-03T07:33:58.158Z,1.72
2019-04-03T07:36:28.551Z,1.70
2019-04-03T07:38:59.327Z,1.40
2019-04-03T07:41:29.975Z,1.55
2019-04-03T07:46:32.855Z,2.17
2019-04-03T07:49:02.522Z,1.25
2019-04-03T07:54:04.751Z,1.07
2019-04-03T07:56:35.194Z,1.07
2019-04-03T08:01:35.899Z,1.55
2019-04-03T08:04:06.596Z,1.10
2019-04-03T08:06:37.289Z,1.15
2019-04-03T08:11:39.941Z,1.12
2019-04-03T08:14:10.590Z,1.17
2019-04-03T08:16:42.676Z,1.42
2019-04-03T08:19:13.282Z,1.10
2019-04-03T08:21:43.981Z,1.27
2019-04-03T08:26:44.955Z,0.82
2019-04-03T08:29:15.426Z,0.98
2019-04-03T08:34:18.699Z,1.05
2019-04-03T08:36:49.214Z,1.25
2019-04-03T08:41:50.009Z,1.55
2019-04-03T08:46:50.970Z,2.45
2019-04-03T08:49:21.433Z,2.15
2019-04-03T08:51:52.387Z,1.50
2019-04-03T08:54:23.069Z,1.00
2019-04-03T08:56:53.717Z,0.90
2019-04-03T09:01:56.011Z,1.22
2019-04-03T09:04:26.368Z,1.25
2019-04-03T09:06:57.040Z,1.20
2019-04-03T09:09:29.893Z,1.07
2019-04-03T09:11:59.649Z,1.15
2019-04-03T09:17:02.269Z,2.23
2019-04-03T09:19:32.607Z,1.05
2019-04-03T09:22:03.380Z,1.42
2019-04-03T09:24:33.929Z,1.17
2019-04-03T09:29:35.318Z,1.32
2019-04-03T09:32:06.856Z,1.87
2019-04-03T09:34:37.271Z,9.63
2019-04-03T09:37:08.023Z,3.35
2019-04-03T09:39:39.081Z,2.98
2019-04-03T09:42:09.738Z,1.42
2019-04-03T09:44:40.810Z,1.75
2019-04-03T09:47:14.294Z,1.70
2019-04-03T09:49:45.474Z,1.60
2019-04-03T09:52:16.149Z,1.52
2019-04-03T09:54:46.777Z,1.87
2019-04-03T09:57:17.308Z,1.42
2019-04-03T10:02:19.602Z,1.57
2019-04-03T10:04:52.146Z,2.15
2019-04-03T10:07:22.982Z,1.47
2019-04-03T10:09:54.531Z,1.80
2019-04-03T10:12:25.223Z,1.10
2019-04-03T10:17:25.709Z,1.70
2019-04-03T10:19:56.707Z,3.40
2019-04-03T10:22:27.521Z,1.77
2019-04-03T10:27:29.217Z,1.70
2019-04-03T10:35:02.440Z,3.90
2019-04-03T10:37:35.932Z,2.77
2019-04-03T10:40:07.576Z,10.60
2019-04-03T10:42:38.097Z,9.80
2019-04-03T10:45:11.013Z,5.00
2019-04-03T10:47:44.183Z,4.95
2019-04-03T10:50:14.108Z,2.62
2019-04-03T10:52:47.677Z,1.30
2019-04-03T10:55:17.040Z,1.15
2019-04-03T10:57:47.365Z,1.67
2019-04-03T11:02:48.702Z,1.10
2019-04-03T11:05:19.404Z,1.40
2019-04-03T11:07:50.255Z,1.40
2019-04-03T11:10:23.356Z,2.80
2019-04-03T11:12:53.030Z,4.00
2019-04-03T11:15:23.991Z,1.77
2019-04-03T11:17:54.877Z,3.37
2019-04-03T11:20:25.599Z,1.85
2019-04-03T11:23:05.391Z,1.12
2019-04-03T11:25:28.844Z,1.30
2019-04-03T11:27:59.803Z,1.70
2019-04-03T11:30:30.659Z,1.98
2019-04-03T11:33:02.693Z,1.55
2019-04-03T11:35:33.939Z,1.60
2019-04-03T11:38:13.183Z,1.57
2019-04-03T11:40:36.850Z,1.87
2019-04-03T11:43:07.808Z,2.50
2019-04-03T11:45:38.582Z,1.67
2019-04-03T11:48:09.212Z,2.02
2019-04-03T11:50:40.269Z,0.95
2019-04-03T11:53:12.762Z,2.25
2019-04-03T11:55:43.236Z,3.62
2019-04-03T11:58:13.967Z,1.55
2019-04-03T12:00:46.456Z,1.65
2019-04-03T12:03:17.669Z,1.85
2019-04-03T12:05:48.367Z,1.60
2019-04-03T12:08:19.625Z,3.42
2019-04-03T12:10:50.395Z,3.20
2019-04-03T12:13:22.844Z,1.67
2019-04-03T12:15:56.207Z,1.82
2019-04-03T12:18:25.723Z,1.65
2019-04-03T12:20:56.659Z,1.50
2019-04-03T12:23:27.823Z,2.37
2019-04-03T12:25:58.699Z,1.80
2019-04-03T12:28:29.488Z,2.12
2019-04-03T12:31:00.341Z,1.77
2019-04-03T12:33:31.461Z,1.42
2019-04-03T12:36:02.130Z,2.05
2019-04-03T12:38:33.056Z,2.62
2019-04-03T12:41:04.972Z,2.10
2019-04-03T12:43:36.179Z,3.25
2019-04-03T12:46:07.323Z,1.70
2019-04-03T12:48:38.148Z,1.40
2019-04-03T12:51:09.063Z,2.10
2019-04-03T12:53:39.648Z,2.25
2019-04-03T12:56:10.807Z,2.77
2019-04-03T12:58:42.008Z,1.67
2019-04-03T13:01:12.730Z,2.27
2019-04-03T13:03:44.001Z,2.37
2019-04-03T13:06:14.927Z,1.87
2019-04-03T13:08:46.307Z,2.10
2019-04-03T13:11:18.593Z,1.60
2019-04-03T13:13:49.304Z,1.20
2019-04-03T13:16:22.365Z,1.00
2019-04-03T13:18:52.195Z,1.35
2019-04-03T13:21:22.849Z,2.08
2019-04-03T13:26:24.760Z,1.95
2019-04-03T13:28:55.708Z,2.27
2019-04-03T13:31:26.482Z,2.70
2019-04-03T13:33:58.038Z,3.70
2019-04-03T13:36:32.474Z,1.57
2019-04-03T13:39:01.643Z,2.60
2019-04-03T13:41:34.709Z,2.33
2019-04-03T13:44:04.748Z,2.22
2019-04-03T13:46:36.516Z,1.30
2019-04-03T13:49:08.305Z,1.70
2019-04-03T13:51:39.558Z,2.10
2019-04-03T13:54:10.465Z,1.62
2019-04-03T13:56:43.158Z,1.60
2019-04-03T13:59:13.259Z,1.50
2019-04-03T14:01:44.158Z,0.95
2019-04-03T14:04:15.075Z,1.40
2019-04-03T14:06:46.177Z,1.85
2019-04-03T14:09:17.604Z,1.50
2019-04-03T14:11:48.244Z,2.37
2019-04-03T14:16:48.875Z,5.20
2019-04-03T14:19:19.902Z,1.82
2019-04-03T14:21:50.760Z,1.42
2019-04-03T14:24:21.535Z,2.12
2019-04-03T14:26:51.946Z,3.40
2019-04-03T14:29:22.799Z,1.52
2019-04-03T14:31:54.038Z,1.90
2019-04-03T14:34:29.279Z,1.85
2019-04-03T14:36:58.368Z,3.02
2019-04-03T14:39:29.679Z,3.20
2019-04-03T14:42:01.292Z,2.25
2019-04-03T14:44:32.128Z,1.10
2019-04-03T14:47:02.799Z,1.32
2019-04-03T14:52:04.143Z,1.70
2019-04-03T14:54:34.855Z,2.12
2019-04-03T14:57:13.194Z,3.52
2019-04-03T14:59:37.557Z,3.10
2019-04-03T15:02:08.344Z,2.40
2019-04-03T15:04:39.363Z,2.50
2019-04-03T15:07:10.329Z,2.62
2019-04-03T15:09:41.324Z,2.70
2019-04-03T15:12:12.957Z,2.20
2019-04-03T15:14:43.426Z,3.22
2019-04-03T15:19:45.313Z,2.03
2019-04-03T15:22:15.890Z,2.33
2019-04-03T15:27:16.868Z,2.67
2019-04-03T15:29:47.441Z,2.87
2019-04-03T15:32:19.826Z,2.27
2019-04-03T15:34:51.317Z,4.67
2019-04-03T15:37:22.172Z,3.02
2019-04-03T15:39:56.930Z,3.50
2019-04-03T15:42:24.808Z,3.75
2019-04-03T15:47:35.280Z,3.90
2019-04-03T15:49:59.973Z,3.00
2019-04-03T15:52:30.770Z,3.08
2019-04-03T15:57:33.087Z,5.47
2019-04-03T16:00:06.503Z,6.83
2019-04-03T16:02:37.365Z,6.58
2019-04-03T16:05:08.503Z,6.55
2019-04-03T16:07:41.454Z,6.58
2019-04-03T16:10:11.748Z,8.25
2019-04-03T16:12:43.499Z,9.88
2019-04-03T16:15:15.423Z,13.28
2019-04-03T16:17:45.774Z,12.03
2019-04-03T16:22:48.231Z,6.90
2019-04-03T16:25:18.977Z,7.45
2019-04-03T16:27:49.806Z,7.47
2019-04-03T16:30:20.639Z,7.62
2019-04-03T16:32:52.242Z,7.72
2019-04-03T16:35:24.305Z,8.68
2019-04-03T16:37:56.664Z,7.95
2019-04-03T16:40:27.258Z,7.72
2019-04-03T16:42:57.811Z,9.88
2019-04-03T16:47:58.601Z,14.65
2019-04-03T16:52:59.515Z,12.35
2019-04-03T16:55:30.044Z,12.70
2019-04-03T16:58:01.019Z,11.48
2019-04-03T17:00:31.658Z,11.28
2019-04-03T17:05:32.856Z,22.75
2019-04-03T17:10:33.459Z,37.78
2019-04-03T17:15:35.383Z,17.02
2019-04-03T17:18:06.234Z,18.42
2019-04-03T17:23:07.727Z,28.35
2019-04-03T17:25:47.620Z,56.77
2019-04-03T17:28:11.807Z,36.75
2019-04-03T17:30:45.877Z,31.15
2019-04-03T17:33:16.978Z,21.12
2019-04-03T17:35:48.438Z,21.75
2019-04-03T17:38:21.961Z,12.93
2019-04-03T17:40:52.838Z,19.90
2019-04-03T17:43:23.589Z,14.33
2019-04-03T17:48:24.801Z,16.37
2019-04-03T17:50:55.733Z,14.38
2019-04-03T17:53:26.382Z,17.50
2019-04-03T17:58:26.869Z,35.77
2019-04-03T18:00:57.726Z,38.80
2019-04-03T18:03:28.071Z,45.58
2019-04-03T18:08:28.761Z,109.83
2019-04-03T18:10:59.573Z,98.85
2019-04-03T18:13:30.496Z,105.45
2019-04-03T18:16:01.245Z,96.08
2019-04-03T18:18:33.497Z,72.22
2019-04-03T18:21:04.180Z,83.30
2019-04-03T18:23:35.056Z,61.45
2019-04-03T18:26:05.878Z,55.90
2019-04-03T18:28:36.647Z,39.35
2019-04-03T18:31:07.449Z,38.85
2019-04-03T18:33:38.259Z,74.10
2019-04-03T18:36:10.042Z,107.22
2019-04-03T18:38:40.995Z,85.15
2019-04-03T18:41:11.728Z,64.00
2019-04-03T18:43:43.505Z,55.78
2019-04-03T18:48:53.176Z,42.90
2019-04-03T18:51:16.073Z,47.65
2019-04-03T18:53:46.897Z,44.35
2019-04-03T18:58:47.224Z,53.00
2019-04-03T19:03:47.916Z,54.42
2019-04-03T19:08:50.130Z,26.48
2019-04-03T19:11:20.567Z,32.10
2019-04-03T19:16:29.323Z,44.95
2019-04-03T19:18:53.256Z,57.80
2019-04-03T19:21:28.270Z,54.27
2019-04-03T19:23:56.299Z,48.25
2019-04-03T19:26:30.048Z,45.23
2019-04-03T19:29:00.770Z,43.30
2019-04-03T19:31:31.551Z,36.68
2019-04-03T19:36:33.037Z,22.52
2019-04-03T19:39:06.636Z,28.40
2019-04-03T19:41:37.489Z,34.35
2019-04-03T19:46:37.975Z,46.03
2019-04-03T19:49:08.746Z,44.20
2019-04-03T19:51:39.626Z,52.08
2019-04-03T19:54:10.473Z,58.92
2019-04-03T19:56:41.214Z,66.60
2019-04-03T19:59:11.868Z,79.20
2019-04-03T20:01:42.718Z,78.95
2019-04-03T20:04:15.680Z,73.60
2019-04-03T20:06:45.555Z,73.05
2019-04-03T20:09:17.799Z,76.12
2019-04-03T20:11:48.598Z,68.75
2019-04-03T20:14:19.333Z,66.90
2019-04-03T20:16:50.107Z,35.73
2019-04-03T20:19:21.455Z,33.10
2019-04-03T20:21:52.021Z,41.85
2019-04-03T20:24:25.043Z,49.03
2019-04-03T20:26:54.862Z,44.65
2019-04-03T20:29:27.523Z,47.30
2019-04-03T20:31:58.208Z,56.73
2019-04-03T20:34:28.964Z,51.00
2019-04-03T20:37:00.515Z,50.30
2019-04-03T20:39:33.792Z,55.38
2019-04-03T20:42:03.665Z,48.80
2019-04-03T20:44:38.556Z,49.35
2019-04-03T20:47:07.725Z,45.52
2019-04-03T20:49:38.599Z,49.93
2019-04-03T20:52:11.511Z,38.45
2019-04-03T20:54:41.842Z,30.00
2019-04-03T20:57:13.553Z,32.83
2019-04-03T20:59:57.691Z,27.48
2019-04-03T21:02:16.757Z,34.83
2019-04-03T21:04:47.418Z,27.73
2019-04-03T21:07:18.269Z,30.43
2019-04-03T21:09:49.108Z,31.48
2019-04-03T21:12:19.879Z,28.00
2019-04-03T21:17:20.467Z,16.12
2019-04-03T21:22:22.488Z,12.45
2019-04-03T21:24:53.124Z,10.63
2019-04-03T21:29:53.812Z,17.67
2019-04-03T21:34:54.428Z,14.50
2019-04-03T21:37:25.985Z,13.13
2019-04-03T21:39:56.925Z,13.18
2019-04-03T21:42:27.800Z,11.15
2019-04-03T21:44:58.663Z,9.25
2019-04-03T21:47:29.292Z,9.78
2019-04-03T21:50:00.045Z,11.28
2019-04-03T21:52:30.695Z,9.28
2019-04-03T21:55:04.602Z,9.00
2019-04-03T21:57:34.061Z,8.48
2019-04-03T22:00:09.111Z,10.68
2019-04-03T22:02:39.968Z,15.30
2019-04-03T22:05:10.517Z,17.17
2019-04-03T22:07:41.372Z,10.43
2019-04-03T22:10:12.125Z,9.25
2019-04-03T22:12:42.800Z,9.90
2019-04-03T22:15:14.511Z,6.87
2019-04-03T22:17:45.193Z,7.85
2019-04-03T22:20:16.061Z,8.50
2019-04-03T22:22:46.814Z,11.57
2019-04-03T22:25:17.463Z,9.13
2019-04-03T22:27:48.202Z,8.58
2019-04-03T22:30:19.999Z,9.83
2019-04-03T22:32:51.141Z,7.78
2019-04-03T22:35:21.913Z,7.85
2019-04-03T22:37:54.893Z,7.05
2019-04-03T22:40:25.655Z,7.58
2019-04-03T22:43:02.338Z,7.58
2019-04-03T22:45:32.904Z,7.92
2019-04-03T22:48:03.761Z,8.70
2019-04-03T22:50:35.336Z,8.90
2019-04-03T22:53:06.296Z,9.28
2019-04-03T22:55:38.160Z,9.03
2019-04-03T22:58:08.926Z,9.45
2019-04-03T23:00:39.680Z,8.35
2019-04-03T23:03:10.209Z,10.03
2019-04-03T23:05:41.082Z,10.85
2019-04-03T23:08:12.044Z,15.48
2019-04-03T23:10:42.680Z,19.50
2019-04-03T23:15:43.265Z,14.25
2019-04-03T23:18:15.883Z,13.88
2019-04-03T23:20:46.201Z,17.77
2019-04-03T23:23:17.074Z,16.65
2019-04-03T23:25:47.830Z,19.00
2019-04-03T23:28:18.481Z,16.85
2019-04-03T23:30:49.356Z,19.02
2019-04-03T23:33:19.970Z,19.20
2019-04-03T23:35:51.135Z,29.37
2019-04-03T23:38:22.216Z,34.43
2019-04-03T23:40:52.948Z,36.80
2019-04-03T23:43:24.639Z,20.43
2019-04-03T23:45:55.498Z,20.10
2019-04-03T23:48:26.150Z,19.27
2019-04-03T23:50:57.004Z,17.82
2019-04-03T23:53:27.756Z,17.52
2019-04-03T23:55:58.493Z,15.88
2019-04-03T23:58:29.044Z,15.65
